Time;durP1;ratioP1;P1;durP2;ratioP2;P2;SDS_P1;SDS_P2;PMS_P1;PMS_P2;Temp;Humidity;BMP_temperature;BMP_pressure;BME280_temperature;BME280_humidity;BME280_pressure;Samples;Min_cycle;Max_cycle;Signal;HPM_P1;HPM_P2
2021/12/31 00:00:21;;;;;;;23.10;14.90;;;;;;;5.71;91.37;100063.98;83308;1349;22629;-70
2021/12/31 00:02:49;;;;;;;21.40;14.60;;;;;;;5.73;91.41;100058.56;83361;1350;25408;-70
2021/12/31 00:05:05;;;;;;;25.50;15.80;;;;;;;5.74;91.54;100046.79;83233;1350;22739;-70
2021/12/31 00:07:17;;;;;;;21.60;14.90;;;;;;;5.75;91.42;100043.80;83385;1348;22642;-70
2021/12/31 00:09:29;;;;;;;26.10;15.90;;;;;;;5.74;91.31;100043.14;83293;1349;25323;-70
2021/12/31 00:11:41;;;;;;;21.90;14.90;;;;;;;5.72;91.26;100044.94;83287;1350;22625;-71
2021/12/31 00:13:51;;;;;;;18.90;13.20;;;;;;;5.70;91.25;100039.77;83265;1350;24294;-69
2021/12/31 00:16:03;;;;;;;22.40;13.70;;;;;;;5.71;91.20;100044.95;83380;1350;22621;-69
2021/12/31 00:18:12;;;;;;;19.20;13.80;;;;;;;5.74;91.55;100053.55;83282;1349;22876;-70
2021/12/31 00:20:35;;;;;;;18.10;12.70;;;;;;;5.76;91.57;100061.27;83295;1348;22884;-71
2021/12/31 00:25:19;;;;;;;24.00;15.70;;;;;;;5.79;91.28;100063.79;82886;1355;22652;-69
2021/12/31 00:27:32;;;;;;;22.60;15.00;;;;;;;5.81;91.43;100077.59;83002;1353;22642;-70
2021/12/31 00:29:44;;;;;;;22.00;14.40;;;;;;;5.79;91.13;100077.65;82976;1353;22648;-73
2021/12/31 00:31:56;;;;;;;22.70;14.40;;;;;;;5.79;91.07;100072.11;82987;1353;24267;-68
2021/12/31 00:34:08;;;;;;;22.30;14.30;;;;;;;5.80;90.88;100074.00;82993;1348;22681;-71
2021/12/31 00:36:20;;;;;;;27.70;13.80;;;;;;;5.79;91.11;100075.73;82848;1355;23931;-72
2021/12/31 00:38:32;;;;;;;21.30;14.90;;;;;;;5.81;91.17;100066.35;82988;1354;24250;-70
2021/12/31 00:40:44;;;;;;;22.60;15.10;;;;;;;5.84;91.25;100063.01;82985;1353;22654;-70
2021/12/31 00:42:54;;;;;;;23.30;17.00;;;;;;;5.86;91.47;100068.30;82964;1354;23023;-71
2021/12/31 00:45:05;;;;;;;24.20;15.50;;;;;;;5.88;91.57;100066.71;83016;1353;22666;-70
2021/12/31 00:47:18;;;;;;;24.40;16.20;;;;;;;5.89;91.42;100069.11;82991;1353;26560;-69
2021/12/31 00:49:27;;;;;;;22.50;16.20;;;;;;;5.90;91.38;100068.02;82989;1353;26558;-71
2021/12/31 00:51:36;;;;;;;24.80;16.70;;;;;;;5.92;91.47;100066.30;82991;1353;24322;-69
2021/12/31 00:53:43;;;;;;;23.70;16.10;;;;;;;5.96;91.54;100071.92;83026;1352;24408;-70
2021/12/31 00:55:50;;;;;;;25.50;17.10;;;;;;;5.99;91.42;100077.58;82970;1353;22614;-71
2021/12/31 00:57:59;;;;;;;26.30;17.60;;;;;;;6.02;91.49;100080.44;83010;1353;22638;-71
2021/12/31 01:00:07;;;;;;;28.60;18.10;;;;;;;6.03;91.59;100084.41;82967;1353;22628;-71
2021/12/31 01:02:15;;;;;;;23.90;16.20;;;;;;;6.03;91.46;100079.73;82971;1353;22962;-71
2021/12/31 01:04:25;;;;;;;24.90;16.50;;;;;;;6.01;91.34;100085.13;83292;1349;22621;-71
2021/12/31 01:06:31;;;;;;;25.30;16.40;;;;;;;6.02;91.41;100087.54;83349;1344;22869;-71
2021/12/31 01:08:38;;;;;;;25.90;17.10;;;;;;;6.04;91.39;100084.54;83286;1346;22965;-70
2021/12/31 01:10:44;;;;;;;24.80;17.20;;;;;;;6.06;91.25;100082.95;83310;1341;24424;-70
2021/12/31 01:12:51;;;;;;;26.20;18.30;;;;;;;6.05;91.41;100074.98;83335;1348;24125;-69
2021/12/31 01:17:26;;;;;;;25.70;17.50;;;;;;;6.09;91.38;100079.56;81975;1372;545131;-71
2021/12/31 01:19:45;;;;;;;30.00;18.90;;;;;;;6.05;91.28;100072.21;84253;1338;25462;-71
2021/12/31 01:21:55;;;;;;;23.90;17.30;;;;;;;6.06;91.32;100068.73;84259;1340;23930;-71
2021/12/31 01:24:02;;;;;;;25.60;16.30;;;;;;;6.07;91.13;100069.58;84200;1339;22611;-71
2021/12/31 01:26:09;;;;;;;26.60;17.50;;;;;;;6.09;91.19;100075.06;84195;1339;22599;-70
2021/12/31 01:28:17;;;;;;;26.20;16.80;;;;;;;6.10;91.23;100072.44;84171;1340;25466;-71
2021/12/31 01:30:24;;;;;;;25.70;16.50;;;;;;;6.10;91.24;100071.39;83923;1340;379062;-71
2021/12/31 01:32:31;;;;;;;28.20;18.50;;;;;;;6.10;91.19;100074.34;84346;1337;23079;-71
2021/12/31 01:34:38;;;;;;;25.90;17.80;;;;;;;6.09;91.00;100068.48;84344;1338;22623;-71
2021/12/31 01:36:45;;;;;;;24.10;15.50;;;;;;;6.08;91.00;100071.78;84345;1337;23914;-71
2021/12/31 01:38:51;;;;;;;22.50;15.50;;;;;;;6.07;90.93;100076.86;84616;1333;25455;-70
2021/12/31 01:40:58;;;;;;;22.60;15.70;;;;;;;6.07;90.82;100069.94;84614;1331;22859;-70
2021/12/31 01:43:10;;;;;;;25.10;16.70;;;;;;;6.09;90.84;100074.39;84607;1330;25330;-72
2021/12/31 01:45:20;;;;;;;27.70;17.10;;;;;;;6.11;91.01;100071.73;84607;1331;22677;-71
2021/12/31 01:47:44;;;;;;;25.60;17.40;;;;;;;6.13;91.06;100069.60;84590;1330;24287;-71
2021/12/31 01:49:58;;;;;;;24.70;16.90;;;;;;;6.12;91.24;100056.98;84646;1329;24302;-71
2021/12/31 01:52:09;;;;;;;24.70;16.20;;;;;;;6.11;90.98;100061.16;84606;1328;22841;-70
2021/12/31 01:54:16;;;;;;;23.70;15.20;;;;;;;6.12;91.02;100070.68;84618;1334;22709;-71
2021/12/31 01:56:23;;;;;;;25.70;16.20;;;;;;;6.13;90.93;100074.45;84598;1331;22613;-72
2021/12/31 01:58:33;;;;;;;25.00;15.90;;;;;;;6.14;90.85;100084.28;84628;1332;22597;-72
2021/12/31 02:00:43;;;;;;;24.40;16.30;;;;;;;6.14;90.77;100083.94;84584;1328;22815;-71
2021/12/31 02:02:53;;;;;;;26.60;17.10;;;;;;;6.13;91.00;100079.10;84626;1330;24269;-72
2021/12/31 02:05:00;;;;;;;25.20;16.60;;;;;;;6.13;90.90;100082.42;84617;1331;22596;-71
2021/12/31 02:07:07;;;;;;;21.40;15.40;;;;;;;6.12;90.94;100083.48;84622;1330;24225;-70
2021/12/31 02:09:17;;;;;;;22.90;15.30;;;;;;;6.11;90.84;100078.14;84643;1334;23940;-71
2021/12/31 02:11:24;;;;;;;23.00;15.50;;;;;;;6.10;90.58;100081.11;84630;1330;22603;-70
2021/12/31 02:13:33;;;;;;;22.20;14.50;;;;;;;6.09;90.69;100079.02;84633;1330;23852;-71
2021/12/31 02:15:40;;;;;;;25.50;15.80;;;;;;;6.10;90.92;100071.59;84604;1330;25584;-72
2021/12/31 02:17:48;;;;;;;23.50;14.20;;;;;;;6.08;90.89;100069.55;84620;1328;22616;-71
2021/12/31 02:20:03;;;;;;;23.70;14.40;;;;;;;6.05;91.02;100065.63;84624;1330;23391;-71
2021/12/31 02:22:10;;;;;;;20.90;14.00;;;;;;;6.03;90.78;100065.70;84613;1334;26844;-71
2021/12/31 02:24:21;;;;;;;20.30;12.50;;;;;;;6.02;90.79;100070.75;84572;1330;24196;-71
2021/12/31 02:26:28;;;;;;;17.90;12.70;;;;;;;6.03;90.94;100076.09;84602;1326;22902;-72
2021/12/31 02:28:38;;;;;;;17.20;12.30;;;;;;;6.04;90.96;100077.44;84834;1321;25080;-70
2021/12/31 02:30:45;;;;;;;16.20;11.30;;;;;;;6.07;91.29;100072.52;84760;1326;22620;-70
2021/12/31 02:32:53;;;;;;;18.90;12.50;;;;;;;6.10;91.47;100073.82;84825;1327;23214;-71
2021/12/31 02:34:59;;;;;;;23.70;12.70;;;;;;;6.12;91.47;100074.65;84801;1325;22609;-70
2021/12/31 02:37:07;;;;;;;18.60;12.90;;;;;;;6.12;91.24;100071.70;84837;1327;24053;-70
2021/12/31 02:39:13;;;;;;;17.40;12.10;;;;;;;6.11;91.42;100064.45;84802;1326;22596;-70
2021/12/31 02:41:21;;;;;;;16.10;11.20;;;;;;;6.12;91.20;100065.31;84775;1327;22589;-70
2021/12/31 02:43:31;;;;;;;14.70;10.90;;;;;;;6.11;91.09;100069.30;84819;1326;22634;-70
2021/12/31 02:45:40;;;;;;;16.10;10.80;;;;;;;6.13;91.30;100076.70;84794;1327;25627;-71
2021/12/31 02:47:50;;;;;;;13.30;9.60;;;;;;;6.17;91.30;100080.61;84786;1327;23970;-73
2021/12/31 02:49:57;;;;;;;12.30;11.00;;;;;;;6.19;91.34;100082.95;84803;1326;24158;-71
2021/12/31 02:52:05;;;;;;;18.30;10.90;;;;;;;6.22;91.62;100081.34;84804;1325;25314;-70
2021/12/31 02:54:12;;;;;;;13.80;10.60;;;;;;;6.23;91.80;100082.00;84811;1326;25445;-71
2021/12/31 02:56:20;;;;;;;19.60;11.40;;;;;;;6.27;91.89;100082.95;84785;1329;22604;-71
2021/12/31 02:58:30;;;;;;;12.60;10.40;;;;;;;6.30;91.67;100074.21;84797;1322;22684;-70
2021/12/31 03:00:43;;;;;;;15.60;10.50;;;;;;;6.33;91.78;100075.68;84794;1327;23966;-71
2021/12/31 03:02:50;;;;;;;16.30;10.50;;;;;;;6.35;91.73;100072.34;84824;1325;22669;-70
2021/12/31 03:05:01;;;;;;;12.90;9.60;;;;;;;6.37;91.58;100065.72;84785;1327;25374;-72
2021/12/31 03:07:08;;;;;;;15.00;10.20;;;;;;;6.38;91.71;100067.41;84813;1326;23581;-71
2021/12/31 03:09:15;;;;;;;13.60;9.90;;;;;;;6.40;91.97;100073.77;84823;1322;22621;-71
2021/12/31 03:11:22;;;;;;;16.30;11.90;;;;;;;6.42;91.84;100076.66;84811;1326;22806;-72
2021/12/31 03:13:29;;;;;;;13.80;10.20;;;;;;;6.43;91.78;100077.84;84821;1321;22607;-70
2021/12/31 03:15:36;;;;;;;11.40;9.50;;;;;;;6.45;91.90;100075.55;84795;1327;24287;-71
2021/12/31 03:17:43;;;;;;;11.10;8.80;;;;;;;6.44;91.91;100077.80;84816;1328;22799;-70
2021/12/31 03:19:59;;;;;;;13.50;9.50;;;;;;;6.47;91.79;100077.77;84807;1318;22611;-71
2021/12/31 03:22:08;;;;;;;12.40;10.00;;;;;;;6.51;91.96;100070.73;84785;1326;22588;-71
2021/12/31 03:24:15;;;;;;;12.40;9.60;;;;;;;6.53;91.98;100071.70;84800;1326;25268;-70
2021/12/31 03:26:21;;;;;;;15.20;10.00;;;;;;;6.55;92.13;100073.22;84738;1326;22644;-70
2021/12/31 03:28:28;;;;;;;15.90;10.50;;;;;;;6.53;91.93;100076.03;84796;1327;24145;-71
2021/12/31 03:30:38;;;;;;;12.00;8.70;;;;;;;6.54;91.88;100074.27;84781;1327;22932;-71
2021/12/31 03:32:44;;;;;;;12.60;9.30;;;;;;;6.55;91.98;100082.05;84781;1326;22558;-71
2021/12/31 03:34:51;;;;;;;11.50;8.80;;;;;;;6.57;92.02;100085.98;84857;1326;25314;-70
2021/12/31 03:36:58;;;;;;;13.80;9.50;;;;;;;6.60;91.96;100088.67;84788;1326;22586;-70
2021/12/31 03:39:04;;;;;;;16.60;9.90;;;;;;;6.62;92.16;100088.79;84812;1327;22597;-72
2021/12/31 03:41:11;;;;;;;14.10;10.20;;;;;;;6.64;92.14;100083.88;84795;1322;22693;-71
2021/12/31 03:43:21;;;;;;;18.10;9.80;;;;;;;6.64;92.09;100085.61;84783;1323;22602;-71
2021/12/31 03:45:28;;;;;;;13.10;10.40;;;;;;;6.63;92.10;100078.55;84796;1326;22679;-71
2021/12/31 03:47:34;;;;;;;12.80;9.60;;;;;;;6.63;92.06;100080.10;84814;1327;22603;-70
2021/12/31 03:49:41;;;;;;;13.70;10.00;;;;;;;6.64;91.96;100070.89;84846;1329;23961;-72
2021/12/31 03:51:48;;;;;;;12.30;9.30;;;;;;;6.65;92.12;100072.77;84803;1327;25562;-72
2021/12/31 03:53:55;;;;;;;10.60;9.30;;;;;;;6.68;92.31;100080.32;84804;1322;22943;-71
2021/12/31 03:56:02;;;;;;;14.90;10.60;;;;;;;6.72;92.36;100079.51;84757;1327;22635;-71
2021/12/31 03:58:09;;;;;;;13.10;10.40;;;;;;;6.76;92.55;100077.33;84837;1322;22618;-71
2021/12/31 04:00:17;;;;;;;14.60;11.10;;;;;;;6.79;92.64;100080.20;84806;1327;23927;-71
2021/12/31 04:02:24;;;;;;;12.70;9.50;;;;;;;6.81;92.69;100085.00;84821;1329;22590;-71
2021/12/31 04:04:34;;;;;;;11.50;9.00;;;;;;;6.83;92.59;100085.80;84796;1326;22847;-72
2021/12/31 04:06:42;;;;;;;11.30;8.30;;;;;;;6.86;92.69;100079.15;84799;1321;22797;-72
2021/12/31 04:08:50;;;;;;;10.30;8.80;;;;;;;6.88;92.65;100085.65;84798;1326;24240;-71
2021/12/31 04:10:59;;;;;;;12.50;9.50;;;;;;;6.92;92.67;100088.86;84793;1326;22696;-72
2021/12/31 04:13:08;;;;;;;11.80;9.10;;;;;;;6.95;92.81;100083.39;84783;1327;22861;-71
2021/12/31 04:15:16;;;;;;;14.10;9.90;;;;;;;6.97;92.76;100081.25;84780;1320;24302;-71
2021/12/31 04:17:25;;;;;;;13.10;10.20;;;;;;;6.99;92.70;100077.05;84665;1332;25357;-71
2021/12/31 04:19:33;;;;;;;13.10;10.30;;;;;;;6.99;92.72;100081.55;84698;1330;24199;-71
2021/12/31 04:21:43;;;;;;;14.40;10.80;;;;;;;6.99;92.58;100083.98;84692;1329;22863;-71
2021/12/31 04:24:04;;;;;;;13.10;10.00;;;;;;;7.00;92.75;100093.85;84700;1330;22669;-71
2021/12/31 04:26:16;;;;;;;13.10;9.80;;;;;;;7.02;92.70;100095.35;84674;1324;22643;-70
2021/12/31 04:28:24;;;;;;;12.00;9.70;;;;;;;7.04;92.65;100088.16;84699;1330;22602;-71
2021/12/31 04:30:36;;;;;;;12.80;9.60;;;;;;;7.06;92.86;100087.42;84651;1325;25433;-71
2021/12/31 04:32:44;;;;;;;13.40;9.90;;;;;;;7.09;92.87;100085.60;84669;1328;22612;-71
2021/12/31 04:34:55;;;;;;;13.40;8.80;;;;;;;7.11;92.83;100079.30;84702;1329;24255;-71
2021/12/31 04:37:04;;;;;;;11.50;9.40;;;;;;;7.14;92.91;100077.84;84661;1325;22613;-71
2021/12/31 04:39:12;;;;;;;9.30;8.30;;;;;;;7.16;92.79;100078.30;84660;1328;22590;-72
2021/12/31 04:41:21;;;;;;;11.30;8.70;;;;;;;7.18;92.86;100082.73;84675;1328;22627;-72
2021/12/31 04:43:29;;;;;;;9.20;7.30;;;;;;;7.22;92.84;100095.46;84679;1328;22664;-71
2021/12/31 04:45:40;;;;;;;11.00;9.00;;;;;;;7.23;92.78;100096.10;84678;1329;23931;-71
2021/12/31 04:47:48;;;;;;;8.10;7.00;;;;;;;7.24;92.83;100098.17;84692;1328;22657;-72
2021/12/31 04:49:57;;;;;;;9.30;7.50;;;;;;;7.27;92.99;100094.11;84681;1328;22597;-70
2021/12/31 04:52:06;;;;;;;9.60;7.70;;;;;;;7.27;93.03;100094.45;84653;1328;22637;-70
2021/12/31 04:54:17;;;;;;;10.40;7.20;;;;;;;7.28;92.79;100097.71;84686;1329;25539;-71
2021/12/31 04:56:28;;;;;;;8.50;7.50;;;;;;;7.30;92.79;100100.29;84671;1330;22603;-71
2021/12/31 04:58:42;;;;;;;9.00;7.90;;;;;;;7.32;92.94;100098.48;84680;1329;23967;-70
2021/12/31 05:00:51;;;;;;;8.30;7.30;;;;;;;7.34;93.06;100096.52;84667;1328;22617;-70
2021/12/31 05:03:00;;;;;;;8.40;7.50;;;;;;;7.36;93.08;100084.83;84667;1328;25422;-70
2021/12/31 05:05:12;;;;;;;11.70;8.50;;;;;;;7.38;93.18;100085.45;84675;1329;22739;-71
2021/12/31 05:07:23;;;;;;;9.70;8.20;;;;;;;7.38;93.17;100088.06;84680;1328;22591;-71
2021/12/31 05:09:32;;;;;;;10.50;8.90;;;;;;;7.40;92.93;100086.45;84709;1325;24641;-71
2021/12/31 05:11:40;;;;;;;10.30;8.00;;;;;;;7.40;92.82;100085.23;84666;1330;22844;-71
2021/12/31 05:13:51;;;;;;;9.30;7.70;;;;;;;7.42;92.96;100086.39;84669;1328;22617;-70
2021/12/31 05:16:04;;;;;;;13.20;8.00;;;;;;;7.45;93.00;100087.86;84699;1328;25431;-71
2021/12/31 05:18:12;;;;;;;10.50;7.80;;;;;;;7.47;93.11;100081.72;84787;1324;22565;-70
2021/12/31 05:20:21;;;;;;;12.80;8.80;;;;;;;7.48;93.18;100080.28;84766;1327;22603;-72
2021/12/31 05:22:33;;;;;;;10.30;7.90;;;;;;;7.49;93.03;100082.36;84727;1327;25387;-71
2021/12/31 05:24:41;;;;;;;9.60;7.50;;;;;;;7.49;92.89;100080.27;84764;1327;23959;-70
2021/12/31 05:26:53;;;;;;;9.90;7.10;;;;;;;7.51;92.94;100074.48;84775;1326;22593;-71
2021/12/31 05:29:02;;;;;;;8.10;7.30;;;;;;;7.53;92.88;100073.92;84787;1326;22615;-72
2021/12/31 05:31:10;;;;;;;9.30;7.90;;;;;;;7.54;93.00;100077.19;84760;1326;22671;-71
2021/12/31 05:33:19;;;;;;;9.00;7.60;;;;;;;7.54;92.96;100083.94;84782;1327;22683;-71
2021/12/31 05:35:28;;;;;;;13.80;8.70;;;;;;;7.54;92.72;100088.98;84758;1326;22590;-71
2021/12/31 05:37:36;;;;;;;9.30;7.90;;;;;;;7.52;92.73;100091.62;84774;1322;22763;-70
2021/12/31 05:39:45;;;;;;;9.60;7.50;;;;;;;7.51;92.61;100084.38;84761;1327;22592;-72
2021/12/31 05:41:53;;;;;;;9.30;7.50;;;;;;;7.50;92.52;100083.55;84776;1322;23062;-71
2021/12/31 05:44:01;;;;;;;8.00;6.90;;;;;;;7.49;92.52;100080.42;84738;1318;22886;-72
2021/12/31 05:46:09;;;;;;;9.60;7.80;;;;;;;7.49;92.40;100079.58;84776;1328;22598;-71
2021/12/31 05:48:20;;;;;;;11.40;7.90;;;;;;;7.49;92.49;100083.23;84801;1322;22607;-71
2021/12/31 05:50:29;;;;;;;11.90;8.10;;;;;;;7.48;92.46;100077.01;84772;1328;24037;-71
2021/12/31 05:52:37;;;;;;;15.90;8.50;;;;;;;7.45;92.40;100078.65;84775;1327;22589;-71
2021/12/31 05:54:49;;;;;;;9.10;7.90;;;;;;;7.44;92.54;100079.39;84790;1323;23126;-71
2021/12/31 05:57:00;;;;;;;12.60;8.40;;;;;;;7.44;92.37;100085.98;84763;1326;22604;-71
2021/12/31 05:59:11;;;;;;;10.50;8.80;;;;;;;7.43;92.33;100087.21;84796;1327;22614;-71
2021/12/31 06:01:19;;;;;;;8.90;8.00;;;;;;;7.43;92.41;100091.19;84762;1323;24233;-72
2021/12/31 06:03:28;;;;;;;9.90;8.30;;;;;;;7.46;92.36;100084.36;84794;1326;22578;-70
2021/12/31 06:05:36;;;;;;;12.20;9.20;;;;;;;7.47;92.38;100083.77;84777;1327;22607;-71
2021/12/31 06:07:44;;;;;;;15.40;8.90;;;;;;;7.49;92.48;100080.27;84772;1326;22946;-72
2021/12/31 06:09:52;;;;;;;10.90;8.80;;;;;;;7.49;92.31;100079.23;84790;1328;22881;-72
2021/12/31 06:12:04;;;;;;;9.80;8.10;;;;;;;7.48;92.24;100079.77;84796;1329;22588;-71
2021/12/31 06:14:16;;;;;;;10.10;8.20;;;;;;;7.49;92.08;100081.85;84779;1327;22915;-72
2021/12/31 06:16:27;;;;;;;9.90;8.80;;;;;;;7.49;91.97;100079.23;84771;1326;24134;-71
2021/12/31 06:18:36;;;;;;;10.20;7.90;;;;;;;7.49;91.98;100081.48;84773;1327;22596;-72
2021/12/31 06:20:46;;;;;;;10.70;8.30;;;;;;;7.50;92.45;100078.52;84773;1327;22626;-72
2021/12/31 06:22:55;;;;;;;11.00;8.70;;;;;;;7.52;92.60;100079.14;84745;1327;22584;-72
2021/12/31 06:25:03;;;;;;;102.80;61.80;;;;;;;7.51;92.44;100079.86;84800;1324;22629;-72
2021/12/31 06:27:11;;;;;;;59.40;38.70;;;;;;;7.50;92.47;100075.03;84701;1327;22704;-72
2021/12/31 06:29:20;;;;;;;13.90;10.50;;;;;;;7.53;92.56;100085.52;84808;1327;24087;-72
2021/12/31 06:31:28;;;;;;;9.50;8.20;;;;;;;7.55;92.51;100088.08;84785;1327;22581;-71
2021/12/31 06:33:36;;;;;;;10.70;8.40;;;;;;;7.57;92.57;100086.96;84788;1327;22978;-72
2021/12/31 06:35:44;;;;;;;9.40;7.60;;;;;;;7.61;92.69;100084.26;84770;1325;22640;-72
2021/12/31 06:37:54;;;;;;;8.80;7.90;;;;;;;7.62;92.71;100083.52;84776;1327;24308;-71
2021/12/31 06:40:08;;;;;;;10.20;8.60;;;;;;;7.62;92.81;100080.74;84746;1327;22594;-72
2021/12/31 06:42:19;;;;;;;10.10;8.10;;;;;;;7.63;92.92;100079.48;84779;1326;24230;-72
2021/12/31 06:44:27;;;;;;;9.20;7.80;;;;;;;7.65;92.88;100083.26;84743;1326;22751;-72
2021/12/31 06:46:35;;;;;;;9.00;7.90;;;;;;;7.69;93.04;100082.96;84755;1326;24259;-72
2021/12/31 06:48:47;;;;;;;8.00;6.70;;;;;;;7.72;93.10;100081.83;84757;1327;22616;-73
2021/12/31 06:50:55;;;;;;;7.20;6.50;;;;;;;7.77;93.22;100085.48;84770;1327;22704;-72
2021/12/31 06:53:06;;;;;;;8.80;7.60;;;;;;;7.80;93.28;100085.23;84754;1327;25440;-72
2021/12/31 06:55:14;;;;;;;10.00;7.80;;;;;;;7.84;93.37;100088.61;84772;1318;22885;-72
2021/12/31 06:57:24;;;;;;;8.70;7.90;;;;;;;7.84;93.42;100088.40;84771;1327;22591;-73
2021/12/31 06:59:35;;;;;;;8.40;7.60;;;;;;;7.87;93.54;100086.22;84771;1322;22617;-72
2021/12/31 07:01:43;;;;;;;6.20;5.60;;;;;;;7.90;93.49;100087.20;84751;1326;22764;-73
2021/12/31 07:03:54;;;;;;;6.80;5.70;;;;;;;7.93;93.63;100089.35;84803;1327;25485;-72
2021/12/31 07:06:03;;;;;;;8.00;7.10;;;;;;;7.96;93.67;100089.59;84759;1326;22640;-71
2021/12/31 07:08:10;;;;;;;6.80;6.10;;;;;;;7.99;93.78;100090.53;84780;1326;22616;-73
2021/12/31 07:10:17;;;;;;;8.10;7.30;;;;;;;8.02;93.82;100092.16;84767;1327;22596;-71
2021/12/31 07:12:24;;;;;;;6.70;6.00;;;;;;;8.06;93.79;100093.80;84742;1328;23944;-70
2021/12/31 07:14:32;;;;;;;6.30;5.30;;;;;;;8.08;93.70;100095.83;84786;1327;22604;-71
2021/12/31 07:16:40;;;;;;;6.10;4.90;;;;;;;8.10;93.54;100096.98;84769;1322;22600;-71
2021/12/31 07:18:49;;;;;;;5.50;4.80;;;;;;;8.12;93.47;100098.29;84748;1326;23997;-71
2021/12/31 07:20:57;;;;;;;5.50;5.00;;;;;;;8.14;93.46;100102.05;84771;1326;22610;-71
2021/12/31 07:23:09;;;;;;;7.80;5.30;;;;;;;8.17;93.63;100103.16;84762;1327;22623;-72
2021/12/31 07:25:20;;;;;;;6.30;5.70;;;;;;;8.19;93.68;100102.41;84763;1326;22821;-71
2021/12/31 07:27:31;;;;;;;6.60;5.50;;;;;;;8.20;93.60;100108.79;84738;1326;22583;-72
2021/12/31 07:29:40;;;;;;;7.10;5.80;;;;;;;8.21;93.41;100106.14;84751;1326;26494;-72
2021/12/31 07:31:49;;;;;;;6.60;5.90;;;;;;;8.22;93.27;100110.63;84741;1327;24062;-72
2021/12/31 07:34:00;;;;;;;8.40;5.90;;;;;;;8.23;93.22;100110.79;84755;1330;23050;-71
2021/12/31 07:36:12;;;;;;;7.50;5.80;;;;;;;8.24;93.14;100112.48;84758;1327;22590;-72
2021/12/31 07:38:24;;;;;;;7.30;6.30;;;;;;;8.26;93.20;100112.07;84764;1327;22913;-71
2021/12/31 07:40:39;;;;;;;7.50;6.50;;;;;;;8.26;93.10;100109.98;84781;1327;22599;-71
2021/12/31 07:42:48;;;;;;;8.30;7.00;;;;;;;8.26;93.18;100110.85;84773;1326;25288;-71
2021/12/31 07:44:56;;;;;;;10.10;6.90;;;;;;;8.26;93.13;100116.77;84790;1318;22947;-71
2021/12/31 07:47:05;;;;;;;7.50;5.90;;;;;;;8.25;93.10;100112.98;84746;1327;22610;-71
2021/12/31 07:49:13;;;;;;;7.50;6.20;;;;;;;8.26;93.10;100111.88;84764;1323;25453;-70
2021/12/31 07:51:21;;;;;;;8.00;5.50;;;;;;;8.27;93.00;100107.52;84759;1325;22787;-69
2021/12/31 07:53:32;;;;;;;6.80;5.40;;;;;;;8.28;92.99;100107.85;84766;1327;25278;-70
2021/12/31 07:55:41;;;;;;;6.80;5.80;;;;;;;8.28;93.13;100104.52;84765;1322;24539;-70
2021/12/31 07:57:52;;;;;;;7.30;5.60;;;;;;;8.31;93.29;100101.84;84738;1327;23751;-70
2021/12/31 08:00:00;;;;;;;7.30;6.30;;;;;;;8.32;93.17;100104.77;84754;1327;22589;-70
2021/12/31 08:02:12;;;;;;;8.40;5.00;;;;;;;8.34;93.08;100100.55;84755;1327;25019;-71
2021/12/31 08:04:23;;;;;;;6.00;5.10;;;;;;;8.35;93.17;100098.59;84744;1326;23901;-71
2021/12/31 08:06:31;;;;;;;7.00;5.20;;;;;;;8.38;93.12;100098.34;84775;1327;22751;-72
2021/12/31 08:08:43;;;;;;;5.20;4.70;;;;;;;8.41;92.97;100101.70;84754;1327;22626;-71
2021/12/31 08:10:54;;;;;;;5.40;4.80;;;;;;;8.43;93.27;100098.52;84764;1326;22643;-71
2021/12/31 08:13:06;;;;;;;6.50;5.80;;;;;;;8.44;93.29;100098.81;84771;1326;24235;-71
2021/12/31 08:15:15;;;;;;;7.20;5.20;;;;;;;8.46;93.24;100097.34;84692;1327;26011;-71
2021/12/31 08:17:23;;;;;;;5.10;4.40;;;;;;;8.48;93.34;100099.39;84769;1324;22610;-71
2021/12/31 08:19:32;;;;;;;6.40;4.80;;;;;;;8.51;93.17;100097.20;84773;1325;22645;-72
2021/12/31 08:21:41;;;;;;;4.40;4.00;;;;;;;8.53;93.23;100100.94;84691;1327;24907;-70
2021/12/31 08:23:50;;;;;;;4.60;3.80;;;;;;;8.57;93.31;100097.88;84685;1324;22777;-71
2021/12/31 08:25:59;;;;;;;6.50;4.40;;;;;;;8.60;93.40;100100.52;84777;1326;25289;-71
2021/12/31 08:28:06;;;;;;;6.70;5.20;;;;;;;8.62;93.38;100103.27;84730;1328;25436;-71
2021/12/31 08:30:14;;;;;;;5.20;4.50;;;;;;;8.64;93.27;100100.42;84739;1325;24152;-71
2021/12/31 08:32:21;;;;;;;6.10;4.40;;;;;;;8.62;93.18;100096.13;84769;1327;24360;-71
2021/12/31 08:34:27;;;;;;;4.90;4.40;;;;;;;8.63;93.15;100092.61;84759;1327;22616;-71
2021/12/31 08:36:34;;;;;;;5.10;4.60;;;;;;;8.65;93.23;100091.48;84794;1320;22657;-71
2021/12/31 08:38:41;;;;;;;4.60;4.20;;;;;;;8.69;93.24;100092.42;84804;1327;22609;-70
2021/12/31 08:40:47;;;;;;;3.90;3.50;;;;;;;8.72;93.27;100091.45;84764;1326;22612;-70
2021/12/31 08:42:54;;;;;;;5.00;4.00;;;;;;;8.74;93.31;100093.98;84767;1326;22592;-70
2021/12/31 08:45:01;;;;;;;4.90;4.30;;;;;;;8.76;93.54;100091.27;84764;1329;22607;-70
2021/12/31 08:47:08;;;;;;;5.40;4.60;;;;;;;8.77;93.25;100088.81;84770;1326;24167;-70
2021/12/31 08:49:14;;;;;;;5.10;4.60;;;;;;;8.77;93.41;100089.85;84785;1327;22603;-69
2021/12/31 08:51:22;;;;;;;4.30;3.90;;;;;;;8.81;93.27;100091.65;84773;1327;22689;-70
2021/12/31 08:53:29;;;;;;;5.40;4.50;;;;;;;8.81;93.15;100092.50;84764;1327;22584;-71
2021/12/31 08:55:35;;;;;;;4.30;3.90;;;;;;;8.83;93.34;100094.17;84762;1324;23135;-72
2021/12/31 08:57:42;;;;;;;6.20;4.60;;;;;;;8.86;93.28;100093.19;84744;1325;22739;-72
2021/12/31 08:59:49;;;;;;;5.40;4.70;;;;;;;8.89;93.27;100094.84;84787;1326;22762;-71
2021/12/31 09:01:55;;;;;;;5.70;5.10;;;;;;;8.92;93.38;100091.44;84779;1328;22947;-70
2021/12/31 09:04:05;;;;;;;4.00;3.70;;;;;;;8.93;93.33;100094.72;84765;1326;22832;-71
2021/12/31 09:06:13;;;;;;;4.40;3.90;;;;;;;8.93;93.34;100089.46;84768;1326;22704;-68
2021/12/31 09:08:19;;;;;;;5.60;4.60;;;;;;;8.95;93.29;100092.02;84790;1326;22605;-70
2021/12/31 09:10:29;;;;;;;5.20;4.60;;;;;;;8.96;93.18;100089.52;84723;1328;22854;-67
2021/12/31 09:12:34;;;;;;;;;;;;;;;8.98;93.32;100091.20;84762;1326;22625;-67
2021/12/31 09:14:46;;;;;;;4.70;4.30;;;;;;;9.00;93.50;100093.04;84790;1326;22618;-73
2021/12/31 09:16:52;;;;;;;5.50;4.20;;;;;;;9.03;93.52;100093.27;84818;1326;24069;-70
2021/12/31 09:19:01;;;;;;;5.60;4.30;;;;;;;9.08;93.65;100095.04;84796;1326;25406;-67
2021/12/31 09:21:11;;;;;;;5.70;4.40;;;;;;;9.10;93.54;100094.58;84777;1326;22626;-68
2021/12/31 09:23:18;;;;;;;4.90;4.40;;;;;;;9.11;93.58;100086.57;84786;1323;22599;-71
2021/12/31 09:25:28;;;;;;;4.70;4.00;;;;;;;9.11;93.50;100081.85;84759;1326;24392;-71
2021/12/31 09:27:35;;;;;;;4.60;4.20;;;;;;;9.12;93.44;100081.84;84774;1326;23853;-71
2021/12/31 09:29:42;;;;;;;4.20;3.40;;;;;;;9.13;93.47;100079.86;84762;1326;22623;-69
2021/12/31 09:31:49;;;;;;;4.60;3.60;;;;;;;9.17;93.65;100080.26;83960;1326;1141133;-71
2021/12/31 09:33:55;;;;;;;3.90;3.10;;;;;;;9.19;93.49;100080.86;84808;1326;25501;-70
2021/12/31 09:36:03;;;;;;;3.00;2.70;;;;;;;9.21;93.69;100077.84;84791;1327;25514;-71
2021/12/31 09:38:10;;;;;;;3.60;3.10;;;;;;;9.24;93.64;100081.55;84800;1326;22822;-70
2021/12/31 09:40:18;;;;;;;2.90;2.70;;;;;;;9.26;93.71;100081.66;84792;1324;22587;-70
2021/12/31 09:42:26;;;;;;;3.20;2.90;;;;;;;9.28;93.61;100079.30;84782;1326;22834;-71
2021/12/31 09:44:33;;;;;;;2.70;2.50;;;;;;;9.32;93.83;100075.17;84800;1328;22596;-71
2021/12/31 09:46:40;;;;;;;3.20;2.90;;;;;;;9.36;93.71;100073.80;84773;1327;25271;-71
2021/12/31 09:48:48;;;;;;;3.40;3.10;;;;;;;9.41;93.72;100072.75;84754;1327;22582;-72
2021/12/31 09:51:02;;;;;;;3.20;2.50;;;;;;;9.45;93.79;100069.98;84783;1326;23860;-70
2021/12/31 09:53:09;;;;;;;3.30;3.00;;;;;;;9.47;93.84;100071.48;84790;1322;22603;-72
2021/12/31 09:55:17;;;;;;;3.70;3.20;;;;;;;9.49;93.80;100072.42;84769;1328;25527;-74
2021/12/31 09:57:27;;;;;;;2.90;2.30;;;;;;;9.52;93.85;100071.10;84790;1327;22726;-72
2021/12/31 09:59:40;;;;;;;2.90;2.70;;;;;;;9.55;93.91;100071.83;84741;1326;22714;-71
2021/12/31 10:01:51;;;;;;;3.10;2.80;;;;;;;9.60;93.77;100065.89;84769;1326;22618;-72
2021/12/31 10:04:00;;;;;;;2.40;2.20;;;;;;;9.63;93.55;100064.77;84763;1326;22671;-71
2021/12/31 10:06:10;;;;;;;3.00;2.70;;;;;;;9.63;93.62;100057.97;84776;1327;24819;-71